Time,TemperatureF,DewpointF,PressureIn,WindDirection,WindDirectionDegrees,WindSpeedMPH,WindSpeedGustMPH,Humidity,HourlyPrecipIn,Conditions,Clouds,dailyrainin,SoftwareType,DateUTC
2013-12-07 00:04:00,10.7,4.3,30.67,NE,50,3.0,4.0,75,0.00,,,0.00,Wunderground v.1.15,2013-12-07 06:04:00,
2013-12-07 00:10:00,10.6,4.2,30.67,NE,50,3.0,4.0,75,0.00,,,0.00,Wunderground v.1.15,2013-12-07 06:10:00,
2013-12-07 00:15:00,10.5,4.1,30.67,NE,50,3.0,5.0,75,0.00,,,0.00,Wunderground v.1.15,2013-12-07 06:15:00,
2013-12-07 00:21:00,10.5,4.1,30.67,NE,50,3.0,4.0,75,0.00,,,0.00,Wunderground v.1.15,2013-12-07 06:21:00,
2013-12-07 00:26:00,10.5,4.1,30.67,NE,54,3.0,4.0,75,0.00,,,0.00,Wunderground v.1.15,2013-12-07 06:26:00,
2013-12-07 00:32:00,10.6,4.2,30.67,ENE,63,4.0,7.0,75,0.00,,,0.00,Wunderground v.1.15,2013-12-07 06:32:00,
2013-12-07 00:37:00,10.7,4.3,30.67,ENE,61,5.0,7.0,75,0.00,,,0.00,Wunderground v.1.15,2013-12-07 06:37:00,
2013-12-07 00:43:00,10.8,4.4,30.67,ENE,74,5.0,7.0,75,0.00,,,0.00,Wunderground v.1.15,2013-12-07 06:43:00,
2013-12-07 00:48:00,10.8,4.4,30.67,ENE,76,5.0,8.0,75,0.00,,,0.00,Wunderground v.1.15,2013-12-07 06:48:00,
2013-12-07 00:54:00,10.8,4.4,30.67,ENE,71,5.0,7.0,75,0.00,,,0.00,Wunderground v.1.15,2013-12-07 06:54:00,
2013-12-07 00:59:00,10.8,4.4,30.67,East,81,4.0,7.0,75,0.00,,,0.00,Wunderground v.1.15,2013-12-07 06:59:00,
2013-12-07 01:05:00,10.7,4.3,30.67,East,92,3.0,7.0,75,0.00,,,0.00,Wunderground v.1.15,2013-12-07 07:05:00,
2013-12-07 01:10:00,10.6,4.2,30.68,East,91,2.0,2.0,75,0.00,,,0.00,Wunderground v.1.15,2013-12-07 07:10:00,
2013-12-07 01:16:00,10.3,3.9,30.67,East,91,1.0,7.0,75,0.00,,,0.00,Wunderground v.1.15,2013-12-07 07:16:00,
2013-12-07 01:21:00,10.1,4.0,30.67,East,90,0.0,7.0,76,0.00,,,0.00,Wunderground v.1.15,2013-12-07 07:21:00,
2013-12-07 01:27:00,9.8,4.0,30.67,NE,51,2.0,7.0,77,0.00,,,0.00,Wunderground v.1.15,2013-12-07 07:27:00,
2013-12-07 01:32:00,9.9,4.1,30.67,NE,51,3.0,7.0,77,0.00,,,0.00,Wunderground v.1.15,2013-12-07 07:32:00,
2013-12-07 01:38:00,9.9,4.1,30.68,ENE,74,4.0,7.0,77,0.00,,,0.00,Wunderground v.1.15,2013-12-07 07:38:00,
2013-12-07 01:43:00,9.9,4.1,30.68,ENE,67,4.0,7.0,77,0.00,,,0.00,Wunderground v.1.15,2013-12-07 07:43:00,
2013-12-07 01:57:00,9.7,3.9,30.68,NE,53,3.0,7.0,77,0.00,,,0.00,Wunderground v.1.15,2013-12-07 07:57:00,
2013-12-07 02:02:00,9.6,4.1,30.68,NE,53,3.0,7.0,78,0.00,,,0.00,Wunderground v.1.15,2013-12-07 08:02:00,
2013-12-07 02:08:00,9.5,4.0,30.68,NE,53,2.0,7.0,78,0.00,,,0.00,Wunderground v.1.15,2013-12-07 08:08:00,
2013-12-07 02:14:00,9.5,4.0,30.68,East,81,4.0,7.0,78,0.00,,,0.00,Wunderground v.1.15,2013-12-07 08:14:00,
2013-12-07 02:20:00,9.5,4.0,30.68,ENE,65,5.0,7.0,78,0.00,,,0.00,Wunderground v.1.15,2013-12-07 08:20:00,
2013-12-07 02:25:00,9.5,4.0,30.68,East,82,4.0,7.0,78,0.00,,,0.00,Wunderground v.1.15,2013-12-07 08:25:00,
2013-12-07 02:30:00,9.5,4.0,30.69,ENE,74,4.0,4.0,78,0.00,,,0.00,Wunderground v.1.15,2013-12-07 08:30:00,
2013-12-07 02:37:00,9.4,3.9,30.69,ENE,62,4.0,7.0,78,0.00,,,0.00,Wunderground v.1.15,2013-12-07 08:37:00,
2013-12-07 02:43:00,9.5,4.0,30.69,ENE,67,4.0,7.0,78,0.00,,,0.00,Wunderground v.1.15,2013-12-07 08:43:00,
2013-12-07 02:48:00,9.4,3.9,30.69,ENE,76,4.0,7.0,78,0.00,,,0.00,Wunderground v.1.15,2013-12-07 08:48:00,
2013-12-07 02:54:00,9.4,3.9,30.69,ENE,68,4.0,7.0,78,0.00,,,0.00,Wunderground v.1.15,2013-12-07 08:54:00,
2013-12-07 03:04:00,9.3,3.8,30.69,East,86,5.0,7.0,78,0.00,,,0.00,Wunderground v.1.15,2013-12-07 09:04:00,
2013-12-07 03:13:00,9.2,3.7,30.69,ENE,78,5.0,7.0,78,0.00,,,0.00,Wunderground v.1.15,2013-12-07 09:13:00,
2013-12-07 03:18:00,9.1,3.6,30.69,ENE,60,5.0,7.0,78,0.00,,,0.00,Wunderground v.1.15,2013-12-07 09:18:00,
2013-12-07 03:23:00,9.1,3.6,30.69,East,98,5.0,7.0,78,0.00,,,0.00,Wunderground v.1.15,2013-12-07 09:23:00,
2013-12-07 03:29:00,9.0,3.5,30.70,East,88,5.0,7.0,78,0.00,,,0.00,Wunderground v.1.15,2013-12-07 09:29:00,
2013-12-07 03:34:00,8.9,3.4,30.70,ENE,69,4.0,7.0,78,0.00,,,0.00,Wunderground v.1.15,2013-12-07 09:34:00,
2013-12-07 03:40:00,8.8,3.3,30.70,ENE,60,3.0,7.0,78,0.00,,,0.00,Wunderground v.1.15,2013-12-07 09:40:00,
2013-12-07 03:48:00,8.6,3.1,30.70,ENE,74,3.0,7.0,78,0.00,,,0.00,Wunderground v.1.15,2013-12-07 09:48:00,
2013-12-07 03:54:00,8.5,3.3,30.71,NE,50,3.0,7.0,79,0.00,,,0.00,Wunderground v.1.15,2013-12-07 09:54:00,
2013-12-07 04:00:00,8.3,3.1,30.71,ENE,69,3.0,3.0,79,0.00,,,0.00,Wunderground v.1.15,2013-12-07 10:00:00,
2013-12-07 04:05:00,8.3,3.1,30.71,East,81,4.0,7.0,79,0.00,,,0.00,Wunderground v.1.15,2013-12-07 10:05:00,
2013-12-07 04:11:00,8.2,3.0,30.71,ENE,72,4.0,7.0,79,0.00,,,0.00,Wunderground v.1.15,2013-12-07 10:11:00,
2013-12-07 04:16:00,8.2,3.0,30.71,ENE,70,3.0,7.0,79,0.00,,,0.00,Wunderground v.1.15,2013-12-07 10:16:00,
2013-12-07 04:22:00,8.0,2.8,30.71,East,83,3.0,7.0,79,0.00,,,0.00,Wunderground v.1.15,2013-12-07 10:22:00,
2013-12-07 04:28:00,8.0,2.8,30.72,ENE,66,4.0,7.0,79,0.00,,,0.00,Wunderground v.1.15,2013-12-07 10:28:00,
2013-12-07 04:33:00,7.9,3.0,30.72,NE,53,3.0,7.0,80,0.00,,,0.00,Wunderground v.1.15,2013-12-07 10:33:00,
2013-12-07 04:39:00,7.8,2.9,30.72,ENE,67,3.0,7.0,80,0.00,,,0.00,Wunderground v.1.15,2013-12-07 10:39:00,
2013-12-07 04:44:00,7.7,2.8,30.72,ENE,66,3.0,7.0,80,0.00,,,0.00,Wunderground v.1.15,2013-12-07 10:44:00,
2013-12-07 04:50:00,7.6,2.7,30.72,ENE,69,4.0,7.0,80,0.00,,,0.00,Wunderground v.1.15,2013-12-07 10:50:00,
2013-12-07 04:55:00,7.4,2.5,30.72,ENE,66,4.0,7.0,80,0.00,,,0.00,Wunderground v.1.15,2013-12-07 10:55:00,
2013-12-07 05:01:00,7.4,2.8,30.73,ENE,63,5.0,7.0,81,0.00,,,0.00,Wunderground v.1.15,2013-12-07 11:01:00,
2013-12-07 05:06:00,7.4,2.8,30.73,ENE,58,4.0,7.0,81,0.00,,,0.00,Wunderground v.1.15,2013-12-07 11:06:00,
2013-12-07 05:12:00,7.3,2.7,30.73,East,82,3.0,7.0,81,0.00,,,0.00,Wunderground v.1.15,2013-12-07 11:12:00,
2013-12-07 05:17:00,7.2,2.6,30.74,NE,53,3.0,7.0,81,0.00,,,0.00,Wunderground v.1.15,2013-12-07 11:17:00,
2013-12-07 05:23:00,7.2,2.6,30.74,ENE,72,3.0,7.0,81,0.00,,,0.00,Wunderground v.1.15,2013-12-07 11:23:00,
2013-12-07 05:28:00,7.1,2.5,30.74,ENE,57,3.0,7.0,81,0.00,,,0.00,Wunderground v.1.15,2013-12-07 11:28:00,
2013-12-07 05:34:00,6.9,2.3,30.74,ENE,57,3.0,7.0,81,0.00,,,0.00,Wunderground v.1.15,2013-12-07 11:34:00,
2013-12-07 05:39:00,6.8,2.2,30.74,ENE,59,4.0,7.0,81,0.00,,,0.00,Wunderground v.1.15,2013-12-07 11:39:00,
2013-12-07 05:45:00,6.8,2.2,30.74,ENE,68,4.0,7.0,81,0.00,,,0.00,Wunderground v.1.15,2013-12-07 11:45:00,
2013-12-07 05:50:00,6.7,2.1,30.74,ENE,65,3.0,7.0,81,0.00,,,0.00,Wunderground v.1.15,2013-12-07 11:50:00,
2013-12-07 06:05:00,6.5,1.9,30.74,ENE,67,3.0,7.0,81,0.00,,,0.00,Wunderground v.1.15,2013-12-07 12:05:00,
2013-12-07 06:10:00,6.5,1.9,30.74,East,82,4.0,7.0,81,0.00,,,0.00,Wunderground v.1.15,2013-12-07 12:10:00,
2013-12-07 06:15:00,6.5,1.6,30.74,NE,53,5.0,7.0,80,0.00,,,0.00,Wunderground v.1.15,2013-12-07 12:15:00,
2013-12-07 06:21:00,6.5,1.6,30.74,ENE,78,5.0,7.0,80,0.00,,,0.00,Wunderground v.1.15,2013-12-07 12:21:00,
2013-12-07 06:26:00,6.3,1.4,30.74,ENE,74,4.0,7.0,80,0.00,,,0.00,Wunderground v.1.15,2013-12-07 12:26:00,
2013-12-07 06:32:00,6.2,1.4,30.75,ENE,69,4.0,7.0,80,0.00,,,0.00,Wunderground v.1.15,2013-12-07 12:32:00,
2013-12-07 06:37:00,6.0,1.4,30.74,ENE,69,3.0,7.0,81,0.00,,,0.00,Wunderground v.1.15,2013-12-07 12:37:00,
2013-12-07 06:43:00,5.9,1.3,30.75,ENE,72,2.0,7.0,81,0.00,,,0.00,Wunderground v.1.15,2013-12-07 12:43:00,
2013-12-07 06:48:00,5.8,1.5,30.75,ENE,59,4.0,7.0,82,0.00,,,0.00,Wunderground v.1.15,2013-12-07 12:48:00,
2013-12-07 06:54:00,5.8,1.5,30.75,ENE,76,4.0,7.0,82,0.00,,,0.00,Wunderground v.1.15,2013-12-07 12:54:00,
2013-12-07 06:59:00,5.8,1.2,30.75,ENE,64,4.0,7.0,81,0.00,,,0.00,Wunderground v.1.15,2013-12-07 12:59:00,
2013-12-07 07:05:00,5.8,1.2,30.76,East,82,4.0,7.0,81,0.00,,,0.00,Wunderground v.1.15,2013-12-07 13:05:00,
2013-12-07 07:10:00,5.7,1.1,30.76,ENE,67,4.0,4.0,81,0.00,,,0.00,Wunderground v.1.15,2013-12-07 13:10:00,
2013-12-07 07:16:00,5.7,1.1,30.76,ENE,76,3.0,7.0,81,0.00,,,0.00,Wunderground v.1.15,2013-12-07 13:16:00,
2013-12-07 07:24:00,5.6,1.0,30.77,ENE,76,1.0,7.0,81,0.00,,,0.00,Wunderground v.1.15,2013-12-07 13:24:00,
2013-12-07 07:30:00,5.6,1.0,30.76,ENE,72,1.0,7.0,81,0.00,,,0.00,Wunderground v.1.15,2013-12-07 13:30:00,
2013-12-07 07:36:00,5.7,1.1,30.76,ENE,72,1.0,7.0,81,0.00,,,0.00,Wunderground v.1.15,2013-12-07 13:36:00,
2013-12-07 07:41:00,5.7,1.1,30.76,ENE,72,1.0,7.0,81,0.00,,,0.00,Wunderground v.1.15,2013-12-07 13:41:00,
2013-12-07 07:47:00,5.8,1.5,30.76,ENE,72,1.0,7.0,82,0.00,,,0.00,Wunderground v.1.15,2013-12-07 13:47:00,
2013-12-07 07:52:00,5.9,1.3,30.76,ENE,66,2.0,7.0,81,0.00,,,0.00,Wunderground v.1.15,2013-12-07 13:52:00,
2013-12-07 07:57:00,6.0,1.4,30.76,ENE,60,4.0,7.0,81,0.00,,,0.00,Wunderground v.1.15,2013-12-07 13:57:00,
2013-12-07 08:03:00,6.1,1.3,30.76,East,79,6.0,8.0,80,0.00,,,0.00,Wunderground v.1.15,2013-12-07 14:03:00,
2013-12-07 08:08:00,6.2,1.4,30.76,ENE,70,6.0,8.0,80,0.00,,,0.00,Wunderground v.1.15,2013-12-07 14:08:00,
2013-12-07 08:14:00,6.5,1.6,30.76,ENE,72,5.0,7.0,80,0.00,,,0.00,Wunderground v.1.15,2013-12-07 14:14:00,
2013-12-07 08:19:00,6.7,1.6,30.77,ENE,78,5.0,7.0,79,0.00,,,0.00,Wunderground v.1.15,2013-12-07 14:19:00,
2013-12-07 08:25:00,6.9,1.8,30.77,East,94,6.0,7.0,79,0.00,,,0.00,Wunderground v.1.15,2013-12-07 14:25:00,
2013-12-07 08:30:00,7.1,2.0,30.77,East,80,6.0,6.0,79,0.00,,,0.00,Wunderground v.1.15,2013-12-07 14:30:00,
2013-12-07 08:36:00,7.4,2.3,30.77,East,88,6.0,10.0,79,0.00,,,0.00,Wunderground v.1.15,2013-12-07 14:36:00,
2013-12-07 08:41:00,7.7,2.5,30.77,ENE,69,6.0,7.0,79,0.00,,,0.00,Wunderground v.1.15,2013-12-07 14:41:00,
2013-12-07 08:47:00,7.9,2.5,30.77,East,88,5.0,7.0,78,0.00,,,0.00,Wunderground v.1.15,2013-12-07 14:47:00,
2013-12-07 08:52:00,7.8,1.8,30.77,NE,51,6.0,9.0,76,0.00,,,0.00,Wunderground v.1.15,2013-12-07 14:52:00,
2013-12-07 08:58:00,8.0,2.0,30.77,ENE,74,7.0,9.0,76,0.00,,,0.00,Wunderground v.1.15,2013-12-07 14:58:00,
2013-12-07 09:05:00,8.3,2.3,30.78,East,80,7.0,7.0,76,0.00,,,0.00,Wunderground v.1.15,2013-12-07 15:05:00,
2013-12-07 09:10:00,8.3,2.0,30.78,East,87,7.0,7.0,75,0.00,,,0.00,Wunderground v.1.15,2013-12-07 15:10:00,
2013-12-07 09:16:00,8.7,2.4,30.78,ENE,73,6.0,7.0,75,0.00,,,0.00,Wunderground v.1.15,2013-12-07 15:16:00,
2013-12-07 09:21:00,8.9,2.3,30.78,ENE,57,6.0,9.0,74,0.00,,,0.00,Wunderground v.1.15,2013-12-07 15:21:00,
2013-12-07 09:26:00,9.1,2.5,30.78,East,90,6.0,9.0,74,0.00,,,0.00,Wunderground v.1.15,2013-12-07 15:26:00,
2013-12-07 09:32:00,9.5,2.6,30.78,East,82,6.0,7.0,73,0.00,,,0.00,Wunderground v.1.15,2013-12-07 15:32:00,
2013-12-07 09:38:00,9.6,2.7,30.78,NE,53,6.0,8.0,73,0.00,,,0.00,Wunderground v.1.15,2013-12-07 15:38:00,
2013-12-07 09:43:00,9.8,2.6,30.78,East,80,6.0,7.0,72,0.00,,,0.00,Wunderground v.1.15,2013-12-07 15:43:00,
2013-12-07 09:48:00,9.9,2.7,30.78,ENE,70,7.0,9.0,72,0.00,,,0.00,Wunderground v.1.15,2013-12-07 15:48:00,
2013-12-07 09:54:00,10.3,3.1,30.78,East,82,6.0,7.0,72,0.00,,,0.00,Wunderground v.1.15,2013-12-07 15:54:00,
2013-12-07 10:00:00,10.8,3.2,30.79,East,87,6.0,6.0,71,0.00,,,0.00,Wunderground v.1.15,2013-12-07 16:00:00,
2013-12-07 10:05:00,11.0,3.1,30.79,NE,46,5.0,7.0,70,0.00,,,0.00,Wunderground v.1.15,2013-12-07 16:05:00,
2013-12-07 10:10:00,11.2,3.0,30.79,NE,55,5.0,7.0,69,0.00,,,0.00,Wunderground v.1.15,2013-12-07 16:10:00,
2013-12-07 10:16:00,11.4,2.9,30.79,ENE,73,6.0,8.0,68,0.00,,,0.00,Wunderground v.1.15,2013-12-07 16:16:00,
2013-12-07 10:22:00,11.6,3.1,30.79,East,90,5.0,8.0,68,0.00,,,0.00,Wunderground v.1.15,2013-12-07 16:22:00,
2013-12-07 10:27:00,11.9,3.4,30.79,East,99,5.0,9.0,68,0.00,,,0.00,Wunderground v.1.15,2013-12-07 16:27:00,
2013-12-07 10:33:00,12.5,3.9,30.79,ENE,71,5.0,7.0,68,0.00,,,0.00,Wunderground v.1.15,2013-12-07 16:33:00,
2013-12-07 10:38:00,12.5,3.0,30.78,East,91,5.0,8.0,65,0.00,,,0.00,Wunderground v.1.15,2013-12-07 16:38:00,
2013-12-07 10:44:00,12.8,3.6,30.78,East,97,6.0,8.0,66,0.00,,,0.00,Wunderground v.1.15,2013-12-07 16:44:00,
2013-12-07 10:49:00,12.5,3.3,30.78,ESE,112,6.0,8.0,66,0.00,,,0.00,Wunderground v.1.15,2013-12-07 16:49:00,
2013-12-07 10:55:00,12.8,3.2,30.77,East,93,5.0,7.0,65,0.00,,,0.00,Wunderground v.1.15,2013-12-07 16:55:00,
2013-12-07 11:00:00,13.3,4.1,30.77,NE,55,4.0,7.0,66,0.00,,,0.00,Wunderground v.1.15,2013-12-07 17:00:00,
2013-12-07 11:06:00,13.8,4.5,30.77,East,99,5.0,9.0,66,0.00,,,0.00,Wunderground v.1.15,2013-12-07 17:06:00,
2013-12-07 11:11:00,14.4,3.7,30.77,ESE,108,6.0,9.0,62,0.00,,,0.00,Wunderground v.1.15,2013-12-07 17:11:00,
2013-12-07 11:17:00,14.4,3.0,30.76,ESE,106,7.0,9.0,60,0.00,,,0.00,Wunderground v.1.15,2013-12-07 17:17:00,
2013-12-07 11:22:00,14.4,3.4,30.76,SE,128,7.0,7.0,61,0.00,,,0.00,Wunderground v.1.15,2013-12-07 17:22:00,
2013-12-07 11:28:00,14.8,3.4,30.75,East,98,7.0,9.0,60,0.00,,,0.00,Wunderground v.1.15,2013-12-07 17:28:00,
2013-12-07 11:33:00,15.1,3.7,30.75,East,88,7.0,7.0,60,0.00,,,0.00,Wunderground v.1.15,2013-12-07 17:33:00,
2013-12-07 11:39:00,15.5,4.1,30.75,East,84,6.0,8.0,60,0.00,,,0.00,Wunderground v.1.15,2013-12-07 17:39:00,
2013-12-07 11:44:00,15.6,4.2,30.74,ENE,71,6.0,7.0,60,0.00,,,0.00,Wunderground v.1.15,2013-12-07 17:44:00,
2013-12-07 11:50:00,16.2,4.7,30.74,East,88,5.0,8.0,60,0.00,,,0.00,Wunderground v.1.15,2013-12-07 17:50:00,
2013-12-07 11:55:00,16.4,3.8,30.73,East,98,7.0,10.0,57,0.00,,,0.00,Wunderground v.1.15,2013-12-07 17:55:00,
2013-12-07 12:01:00,16.8,4.6,30.72,East,92,8.0,8.0,58,0.00,,,0.00,Wunderground v.1.15,2013-12-07 18:01:00,
2013-12-07 12:06:00,16.7,4.1,30.72,East,90,6.0,9.0,57,0.00,,,0.00,Wunderground v.1.15,2013-12-07 18:06:00,
2013-12-07 12:12:00,16.9,4.7,30.73,ESE,106,6.0,9.0,58,0.00,,,0.00,Wunderground v.1.15,2013-12-07 18:12:00,
2013-12-07 12:17:00,17.0,4.0,30.72,East,98,6.0,10.0,56,0.00,,,0.00,Wunderground v.1.15,2013-12-07 18:17:00,
2013-12-07 12:23:00,17.6,4.2,30.72,ESE,111,7.0,9.0,55,0.00,,,0.00,Wunderground v.1.15,2013-12-07 18:23:00,
2013-12-07 12:28:00,17.7,4.2,30.72,East,91,8.0,9.0,55,0.00,,,0.00,Wunderground v.1.15,2013-12-07 18:28:00,
2013-12-07 12:34:00,17.8,4.3,30.72,ENE,64,7.0,9.0,55,0.00,,,0.00,Wunderground v.1.15,2013-12-07 18:34:00,
2013-12-07 12:39:00,18.0,4.1,30.72,East,86,7.0,9.0,54,0.00,,,0.00,Wunderground v.1.15,2013-12-07 18:39:00,
2013-12-07 12:45:00,17.9,3.6,30.71,ESE,117,6.0,10.0,53,0.00,,,0.00,Wunderground v.1.15,2013-12-07 18:45:00,
2013-12-07 12:50:00,18.2,3.9,30.71,ESE,118,8.0,8.0,53,0.00,,,0.00,Wunderground v.1.15,2013-12-07 18:50:00,
2013-12-07 12:56:00,18.4,3.3,30.71,ESE,116,8.0,9.0,51,0.00,,,0.00,Wunderground v.1.15,2013-12-07 18:56:00,
2013-12-07 13:01:00,18.4,3.3,30.70,ESE,105,8.0,9.0,51,0.00,,,0.00,Wunderground v.1.15,2013-12-07 19:01:00,
2013-12-07 13:07:00,19.0,3.4,30.70,East,93,7.0,9.0,50,0.00,,,0.00,Wunderground v.1.15,2013-12-07 19:07:00,
2013-12-07 13:12:00,18.9,3.3,30.70,ESE,104,7.0,8.0,50,0.00,,,0.00,Wunderground v.1.15,2013-12-07 19:12:00,
2013-12-07 13:18:00,19.3,3.7,30.69,ESE,122,6.0,10.0,50,0.00,,,0.00,Wunderground v.1.15,2013-12-07 19:18:00,
2013-12-07 13:23:00,19.5,3.9,30.69,ESE,111,6.0,7.0,50,0.00,,,0.00,Wunderground v.1.15,2013-12-07 19:23:00,
2013-12-07 13:29:00,19.7,4.0,30.68,ESE,109,6.0,9.0,50,0.00,,,0.00,Wunderground v.1.15,2013-12-07 19:29:00,
2013-12-07 13:34:00,19.6,3.5,30.68,ESE,111,8.0,11.0,49,0.00,,,0.00,Wunderground v.1.15,2013-12-07 19:34:00,
2013-12-07 13:40:00,19.5,3.4,30.68,East,101,8.0,8.0,49,0.00,,,0.00,Wunderground v.1.15,2013-12-07 19:40:00,
2013-12-07 13:46:00,19.6,3.5,30.68,East,94,6.0,8.0,49,0.00,,,0.00,Wunderground v.1.15,2013-12-07 19:46:00,
2013-12-07 13:51:00,19.6,3.5,30.68,SE,131,6.0,7.0,49,0.00,,,0.00,Wunderground v.1.15,2013-12-07 19:51:00,
2013-12-07 13:58:00,20.0,3.0,30.67,East,96,7.0,9.0,47,0.00,,,0.00,Wunderground v.1.15,2013-12-07 19:58:00,
2013-12-07 14:04:00,20.1,3.1,30.67,East,91,8.0,8.0,47,0.00,,,0.00,Wunderground v.1.15,2013-12-07 20:04:00,
2013-12-07 14:10:00,19.9,2.4,30.67,ESE,114,6.0,7.0,46,0.00,,,0.00,Wunderground v.1.15,2013-12-07 20:10:00,
2013-12-07 14:15:00,20.0,2.5,30.67,ESE,114,6.0,7.0,46,0.00,,,0.00,Wunderground v.1.15,2013-12-07 20:15:00,
2013-12-07 14:21:00,20.3,2.3,30.66,East,96,7.0,10.0,45,0.00,,,0.00,Wunderground v.1.15,2013-12-07 20:21:00,
2013-12-07 14:26:00,20.4,2.4,30.66,ESE,103,7.0,10.0,45,0.00,,,0.00,Wunderground v.1.15,2013-12-07 20:26:00,
2013-12-07 14:32:00,20.4,2.4,30.66,East,93,7.0,8.0,45,0.00,,,0.00,Wunderground v.1.15,2013-12-07 20:32:00,
2013-12-07 14:37:00,20.4,2.4,30.66,SE,128,7.0,9.0,45,0.00,,,0.00,Wunderground v.1.15,2013-12-07 20:37:00,
2013-12-07 14:43:00,20.3,1.8,30.66,ESE,109,7.0,9.0,44,0.00,,,0.00,Wunderground v.1.15,2013-12-07 20:43:00,
2013-12-07 14:48:00,20.6,2.6,30.66,ESE,113,7.0,9.0,45,0.00,,,0.00,Wunderground v.1.15,2013-12-07 20:48:00,
2013-12-07 14:54:00,20.6,1.6,30.66,East,99,7.0,9.0,43,0.00,,,0.00,Wunderground v.1.15,2013-12-07 20:54:00,
2013-12-07 14:59:00,20.4,2.4,30.66,East,92,7.0,9.0,45,0.00,,,0.00,Wunderground v.1.15,2013-12-07 20:59:00,
2013-12-07 15:05:00,20.7,3.2,30.66,East,101,6.0,8.0,46,0.00,,,0.00,Wunderground v.1.15,2013-12-07 21:05:00,
2013-12-07 15:10:00,20.6,3.5,30.66,ESE,115,7.0,7.0,47,0.00,,,0.00,Wunderground v.1.15,2013-12-07 21:10:00,
2013-12-07 15:16:00,20.4,2.9,30.66,ESE,108,7.0,9.0,46,0.00,,,0.00,Wunderground v.1.15,2013-12-07 21:16:00,
2013-12-07 15:21:00,20.5,3.4,30.66,ESE,112,7.0,8.0,47,0.00,,,0.00,Wunderground v.1.15,2013-12-07 21:21:00,
2013-12-07 15:27:00,20.3,1.8,30.66,ESE,121,7.0,10.0,44,0.00,,,0.00,Wunderground v.1.15,2013-12-07 21:27:00,
2013-12-07 15:34:00,20.1,1.6,30.66,ESE,118,8.0,9.0,44,0.00,,,0.00,Wunderground v.1.15,2013-12-07 21:34:00,
2013-12-07 15:40:00,20.0,2.0,30.66,SE,131,7.0,7.0,45,0.00,,,0.00,Wunderground v.1.15,2013-12-07 21:40:00,
2013-12-07 15:45:00,19.7,1.8,30.65,ESE,117,8.0,9.0,45,0.00,,,0.00,Wunderground v.1.15,2013-12-07 21:45:00,
2013-12-07 15:51:00,19.5,2.0,30.65,ESE,116,7.0,8.0,46,0.00,,,0.00,Wunderground v.1.15,2013-12-07 21:51:00,
2013-12-07 15:56:00,19.5,2.0,30.65,ESE,107,7.0,8.0,46,0.00,,,0.00,Wunderground v.1.15,2013-12-07 21:56:00,
2013-12-07 16:02:00,19.3,1.9,30.65,ESE,121,7.0,7.0,46,0.00,,,0.00,Wunderground v.1.15,2013-12-07 22:02:00,
2013-12-07 16:07:00,19.2,2.2,30.65,ESE,117,6.0,7.0,47,0.00,,,0.00,Wunderground v.1.15,2013-12-07 22:07:00,
2013-12-07 16:13:00,19.1,3.5,30.65,ESE,120,5.0,7.0,50,0.00,,,0.00,Wunderground v.1.15,2013-12-07 22:13:00,
2013-12-07 16:26:00,18.6,3.4,30.64,ESE,113,6.0,7.0,51,0.00,,,0.00,Wunderground v.1.15,2013-12-07 22:26:00,
2013-12-07 16:32:00,18.1,3.8,30.64,ESE,112,5.0,6.0,53,0.00,,,0.00,Wunderground v.1.15,2013-12-07 22:32:00,
2013-12-07 16:38:00,17.8,3.5,30.64,ESE,112,5.0,7.0,53,0.00,,,0.00,Wunderground v.1.15,2013-12-07 22:38:00,
2013-12-07 16:43:00,17.3,3.9,30.64,ESE,112,5.0,7.0,55,0.00,,,0.00,Wunderground v.1.15,2013-12-07 22:43:00,
2013-12-07 16:49:00,16.7,3.3,30.63,ESE,115,5.0,7.0,55,0.00,,,0.00,Wunderground v.1.15,2013-12-07 22:49:00,
2013-12-07 16:54:00,16.2,3.6,30.63,ESE,118,4.0,7.0,57,0.00,,,0.00,Wunderground v.1.15,2013-12-07 22:54:00,
2013-12-07 17:00:00,15.7,3.5,30.63,ESE,118,4.0,7.0,58,0.00,,,0.00,Wunderground v.1.15,2013-12-07 23:00:00,
2013-12-07 17:05:00,15.3,3.1,30.63,ESE,118,4.0,7.0,58,0.00,,,0.00,Wunderground v.1.15,2013-12-07 23:05:00,
2013-12-07 17:11:00,15.0,3.2,30.63,ESE,118,3.0,7.0,59,0.00,,,0.00,Wunderground v.1.15,2013-12-07 23:11:00,
2013-12-07 17:16:00,14.8,3.4,30.63,ESE,118,3.0,7.0,60,0.00,,,0.00,Wunderground v.1.15,2013-12-07 23:16:00,
2013-12-07 17:22:00,14.5,3.5,30.62,ESE,110,4.0,7.0,61,0.00,,,0.00,Wunderground v.1.15,2013-12-07 23:22:00,
2013-12-07 17:27:00,14.3,3.6,30.62,ESE,110,4.0,7.0,62,0.00,,,0.00,Wunderground v.1.15,2013-12-07 23:27:00,
2013-12-07 17:33:00,14.2,3.6,30.61,ESE,110,3.0,7.0,62,0.00,,,0.00,Wunderground v.1.15,2013-12-07 23:33:00,
2013-12-07 17:38:00,13.9,3.6,30.61,ESE,110,3.0,7.0,63,0.00,,,0.00,Wunderground v.1.15,2013-12-07 23:38:00,
2013-12-07 17:43:00,13.8,3.9,30.61,ESE,110,2.0,7.0,64,0.00,,,0.00,Wunderground v.1.15,2013-12-07 23:43:00,
2013-12-07 17:49:00,13.8,3.9,30.61,ESE,110,2.0,7.0,64,0.00,,,0.00,Wunderground v.1.15,2013-12-07 23:49:00,
2013-12-07 17:54:00,13.8,3.5,30.60,ESE,110,2.0,7.0,63,0.00,,,0.00,Wunderground v.1.15,2013-12-07 23:54:00,
2013-12-07 18:00:00,13.5,3.6,30.61,ESE,111,2.0,7.0,64,0.00,,,0.00,Wunderground v.1.15,2013-12-08 00:00:00,
2013-12-07 18:05:00,13.2,3.6,30.60,ESE,111,2.0,7.0,65,0.00,,,0.00,Wunderground v.1.15,2013-12-08 00:05:00,
2013-12-07 18:11:00,13.4,3.8,30.60,ESE,111,3.0,7.0,65,0.00,,,0.00,Wunderground v.1.15,2013-12-08 00:11:00,
2013-12-07 18:16:00,13.2,3.6,30.60,ESE,111,4.0,7.0,65,0.00,,,0.00,Wunderground v.1.15,2013-12-08 00:16:00,
2013-12-07 18:22:00,13.6,3.7,30.60,ESE,111,4.0,7.0,64,0.00,,,0.00,Wunderground v.1.15,2013-12-08 00:22:00,
2013-12-07 18:28:00,13.7,3.4,30.59,ESE,108,4.0,7.0,63,0.00,,,0.00,Wunderground v.1.15,2013-12-08 00:28:00,
2013-12-07 18:33:00,13.8,3.5,30.59,ESE,108,4.0,7.0,63,0.00,,,0.00,Wunderground v.1.15,2013-12-08 00:33:00,
2013-12-07 18:39:00,13.7,3.8,30.60,ESE,108,4.0,7.0,64,0.00,,,0.00,Wunderground v.1.15,2013-12-08 00:39:00,
2013-12-07 18:44:00,13.5,3.6,30.59,ESE,108,4.0,7.0,64,0.00,,,0.00,Wunderground v.1.15,2013-12-08 00:44:00,
2013-12-07 18:51:00,13.0,3.8,30.59,ESE,108,4.0,7.0,66,0.00,,,0.00,Wunderground v.1.15,2013-12-08 00:51:00,
2013-12-07 18:57:00,12.8,3.9,30.59,ESE,108,3.0,7.0,67,0.00,,,0.00,Wunderground v.1.15,2013-12-08 00:57:00,
2013-12-07 19:04:00,12.8,3.9,30.59,ESE,108,3.0,7.0,67,0.00,,,0.00,Wunderground v.1.15,2013-12-08 01:04:00,
2013-12-07 19:10:00,12.7,4.1,30.58,ESE,108,4.0,4.0,68,0.00,,,0.00,Wunderground v.1.15,2013-12-08 01:10:00,
2013-12-07 19:15:00,12.6,4.0,30.58,ESE,108,3.0,7.0,68,0.00,,,0.00,Wunderground v.1.15,2013-12-08 01:15:00,
2013-12-07 19:21:00,12.3,4.1,30.58,ESE,108,3.0,7.0,69,0.00,,,0.00,Wunderground v.1.15,2013-12-08 01:21:00,
2013-12-07 19:26:00,12.2,4.0,30.58,ESE,109,4.0,7.0,69,0.00,,,0.00,Wunderground v.1.15,2013-12-08 01:26:00,
2013-12-07 19:32:00,12.5,4.3,30.59,ESE,109,2.0,7.0,69,0.00,,,0.00,Wunderground v.1.15,2013-12-08 01:32:00,
2013-12-07 19:37:00,13.2,4.3,30.59,ESE,109,1.0,7.0,67,0.00,,,0.00,Wunderground v.1.15,2013-12-08 01:37:00,
2013-12-07 19:43:00,13.7,4.1,30.59,ESE,109,1.0,7.0,65,0.00,,,0.00,Wunderground v.1.15,2013-12-08 01:43:00,
2013-12-07 19:49:00,14.1,4.5,30.59,ESE,109,1.0,7.0,65,0.00,,,0.00,Wunderground v.1.15,2013-12-08 01:49:00,
2013-12-07 19:55:00,14.1,4.1,30.59,ESE,109,2.0,7.0,64,0.00,,,0.00,Wunderground v.1.15,2013-12-08 01:55:00,
2013-12-07 20:02:00,14.0,4.1,30.60,ESE,109,1.0,7.0,64,0.00,,,0.00,Wunderground v.1.15,2013-12-08 02:02:00,
2013-12-07 20:08:00,14.0,4.4,30.60,ESE,109,0.0,7.0,65,0.00,,,0.00,Wunderground v.1.15,2013-12-08 02:08:00,
2013-12-07 20:14:00,13.8,4.2,30.60,ESE,109,0.0,7.0,65,0.00,,,0.00,Wunderground v.1.15,2013-12-08 02:14:00,
2013-12-07 20:19:00,13.8,4.5,30.59,ESE,109,0.0,7.0,66,0.00,,,0.00,Wunderground v.1.15,2013-12-08 02:19:00,
2013-12-07 20:25:00,13.8,4.5,30.59,ESE,109,2.0,7.0,66,0.00,,,0.00,Wunderground v.1.15,2013-12-08 02:25:00,
2013-12-07 20:30:00,13.9,4.6,30.60,East,90,3.0,3.0,66,0.00,,,0.00,Wunderground v.1.15,2013-12-08 02:30:00,
2013-12-07 20:36:00,14.1,4.8,30.60,East,90,1.0,7.0,66,0.00,,,0.00,Wunderground v.1.15,2013-12-08 02:36:00,
2013-12-07 20:41:00,14.1,4.8,30.60,East,90,1.0,7.0,66,0.00,,,0.00,Wunderground v.1.15,2013-12-08 02:41:00,
2013-12-07 20:49:00,13.7,5.1,30.60,East,90,1.0,7.0,68,0.00,,,0.00,Wunderground v.1.15,2013-12-08 02:49:00,
2013-12-07 20:55:00,13.4,5.1,30.61,East,90,0.0,7.0,69,0.00,,,0.00,Wunderground v.1.15,2013-12-08 02:55:00,
2013-12-07 21:01:00,13.4,5.1,30.61,East,90,0.0,7.0,69,0.00,,,0.00,Wunderground v.1.15,2013-12-08 03:01:00,
2013-12-07 21:06:00,13.2,4.9,30.61,East,90,0.0,7.0,69,0.00,,,0.00,Wunderground v.1.15,2013-12-08 03:06:00,
2013-12-07 21:12:00,13.0,5.0,30.61,East,90,0.0,7.0,70,0.00,,,0.00,Wunderground v.1.15,2013-12-08 03:12:00,
2013-12-07 21:17:00,13.0,5.0,30.60,East,90,0.0,7.0,70,0.00,,,0.00,Wunderground v.1.15,2013-12-08 03:17:00,
2013-12-07 21:23:00,13.0,5.0,30.60,East,90,0.0,7.0,70,0.00,,,0.00,Wunderground v.1.15,2013-12-08 03:23:00,
2013-12-07 21:28:00,12.9,5.3,30.59,East,90,2.0,7.0,71,0.00,,,0.00,Wunderground v.1.15,2013-12-08 03:28:00,
2013-12-07 21:34:00,12.5,4.9,30.59,East,90,3.0,7.0,71,0.00,,,0.00,Wunderground v.1.15,2013-12-08 03:34:00,
2013-12-07 21:39:00,12.0,4.7,30.59,East,90,2.0,7.0,72,0.00,,,0.00,Wunderground v.1.15,2013-12-08 03:39:00,
2013-12-07 21:45:00,11.6,4.9,30.59,East,92,3.0,7.0,74,0.00,,,0.00,Wunderground v.1.15,2013-12-08 03:45:00,
2013-12-07 21:50:00,12.1,5.1,30.58,East,96,4.0,7.0,73,0.00,,,0.00,Wunderground v.1.15,2013-12-08 03:50:00,
2013-12-07 21:56:00,12.5,5.5,30.58,East,92,4.0,7.0,73,0.00,,,0.00,Wunderground v.1.15,2013-12-08 03:56:00,
2013-12-07 22:01:00,13.1,6.4,30.57,East,95,4.0,7.0,74,0.00,,,0.00,Wunderground v.1.15,2013-12-08 04:01:00,
2013-12-07 22:07:00,13.7,6.6,30.57,ESE,112,5.0,7.0,73,0.00,,,0.00,Wunderground v.1.15,2013-12-08 04:07:00,
2013-12-07 22:12:00,14.1,6.7,30.57,ESE,118,6.0,8.0,72,0.00,,,0.00,Wunderground v.1.15,2013-12-08 04:12:00,
2013-12-07 22:18:00,14.5,7.1,30.57,ESE,114,7.0,8.0,72,0.00,,,0.00,Wunderground v.1.15,2013-12-08 04:18:00,
2013-12-07 22:23:00,14.7,7.3,30.58,ESE,119,6.0,7.0,72,0.00,,,0.00,Wunderground v.1.15,2013-12-08 04:23:00,
2013-12-07 22:29:00,14.8,7.1,30.58,ESE,105,6.0,7.0,71,0.00,,,0.00,Wunderground v.1.15,2013-12-08 04:29:00,
2013-12-07 22:34:00,15.0,7.3,30.57,ESE,115,6.0,7.0,71,0.00,,,0.00,Wunderground v.1.15,2013-12-08 04:34:00,
2013-12-07 22:40:00,15.0,7.0,30.57,ESE,111,6.0,6.0,70,0.00,,,0.00,Wunderground v.1.15,2013-12-08 04:40:00,
2013-12-07 22:45:00,15.2,6.8,30.56,ESE,121,6.0,9.0,69,0.00,,,0.00,Wunderground v.1.15,2013-12-08 04:45:00,
2013-12-07 22:51:00,15.3,7.3,30.55,ESE,114,7.0,7.0,70,0.00,,,0.00,Wunderground v.1.15,2013-12-08 04:51:00,
2013-12-07 22:56:00,15.3,6.9,30.56,ESE,117,7.0,8.0,69,0.00,,,0.00,Wunderground v.1.15,2013-12-08 04:56:00,
2013-12-07 23:01:00,15.3,7.3,30.56,SE,132,6.0,7.0,70,0.00,,,0.00,Wunderground v.1.15,2013-12-08 05:01:00,
2013-12-07 23:03:00,15.3,6.9,30.55,ESE,123,5.0,7.0,69,0.00,,,0.00,Wunderground v.1.15,2013-12-08 05:03:00,
2013-12-07 23:04:00,15.4,7.0,30.55,SE,129,5.0,7.0,69,0.00,,,0.00,Wunderground v.1.15,2013-12-08 05:04:00,
2013-12-07 23:06:00,15.4,7.4,30.55,SE,128,5.0,7.0,70,0.00,,,0.00,Wunderground v.1.15,2013-12-08 05:06:00,
2013-12-07 23:09:00,15.4,7.0,30.55,SE,127,5.0,7.0,69,0.00,,,0.00,Wunderground v.1.15,2013-12-08 05:09:00,
2013-12-07 23:11:00,15.5,7.1,30.55,ESE,119,5.0,7.0,69,0.00,,,0.00,Wunderground v.1.15,2013-12-08 05:11:00,
2013-12-07 23:17:00,15.6,7.2,30.54,ESE,121,6.0,8.0,69,0.00,,,0.00,Wunderground v.1.15,2013-12-08 05:17:00,
2013-12-07 23:23:00,15.7,7.3,30.53,ESE,119,7.0,9.0,69,0.00,,,0.00,Wunderground v.1.15,2013-12-08 05:23:00,
2013-12-07 23:28:00,15.7,7.0,30.52,ESE,115,8.0,9.0,68,0.00,,,0.00,Wunderground v.1.15,2013-12-08 05:28:00,
2013-12-07 23:34:00,15.8,7.4,30.53,ESE,110,7.0,8.0,69,0.00,,,0.00,Wunderground v.1.15,2013-12-08 05:34:00,
2013-12-07 23:39:00,15.9,7.5,30.52,ESE,107,7.0,8.0,69,0.00,,,0.00,Wunderground v.1.15,2013-12-08 05:39:00,
2013-12-07 23:44:00,15.9,7.2,30.53,ESE,106,7.0,9.0,68,0.00,,,0.00,Wunderground v.1.15,2013-12-08 05:44:00,
2013-12-07 23:50:00,16.1,7.7,30.52,ESE,104,7.0,7.0,69,0.00,,,0.00,Wunderground v.1.15,2013-12-08 05:50:00,
2013-12-07 23:55:00,16.1,7.4,30.52,ESE,107,7.0,9.0,68,0.00,,,0.00,Wunderground v.1.15,2013-12-08 05:55:00,